sensor_id;sensor_type;location;lat;lon;timestamp;P1;durP1;ratioP1;P2;durP2;ratioP2
21705;SDS011;11014;53.076;18.208;2024-01-27T00:00:53;18.17;;;3.28;;
21705;SDS011;11014;53.076;18.208;2024-01-27T00:03:42;12.30;;;2.47;;
21705;SDS011;11014;53.076;18.208;2024-01-27T00:09:33;15.65;;;2.83;;
21705;SDS011;11014;53.076;18.208;2024-01-27T00:12:14;13.63;;;2.65;;
21705;SDS011;11014;53.076;18.208;2024-01-27T00:14:43;16.58;;;3.00;;
21705;SDS011;11014;53.076;18.208;2024-01-27T00:17:14;12.05;;;1.38;;
21705;SDS011;11014;53.076;18.208;2024-01-27T00:19:43;15.93;;;3.17;;
21705;SDS011;11014;53.076;18.208;2024-01-27T00:22:12;18.10;;;2.72;;
21705;SDS011;11014;53.076;18.208;2024-01-27T00:24:41;15.18;;;2.38;;
21705;SDS011;11014;53.076;18.208;2024-01-27T00:27:10;14.85;;;2.80;;
21705;SDS011;11014;53.076;18.208;2024-01-27T00:29:40;13.20;;;2.58;;
21705;SDS011;11014;53.076;18.208;2024-01-27T00:32:09;15.40;;;2.80;;
21705;SDS011;11014;53.076;18.208;2024-01-27T00:34:38;21.23;;;3.13;;
21705;SDS011;11014;53.076;18.208;2024-01-27T00:37:07;15.73;;;2.92;;
21705;SDS011;11014;53.076;18.208;2024-01-27T00:39:36;10.35;;;2.30;;
21705;SDS011;11014;53.076;18.208;2024-01-27T00:42:04;15.88;;;3.13;;
21705;SDS011;11014;53.076;18.208;2024-01-27T00:44:34;13.07;;;2.83;;
21705;SDS011;11014;53.076;18.208;2024-01-27T00:47:03;18.77;;;2.97;;
21705;SDS011;11014;53.076;18.208;2024-01-27T00:49:32;17.70;;;2.88;;
21705;SDS011;11014;53.076;18.208;2024-01-27T00:52:01;20.08;;;3.03;;
21705;SDS011;11014;53.076;18.208;2024-01-27T00:54:30;14.73;;;3.50;;
21705;SDS011;11014;53.076;18.208;2024-01-27T00:56:59;12.35;;;3.03;;
21705;SDS011;11014;53.076;18.208;2024-01-27T00:59:28;17.65;;;3.42;;
21705;SDS011;11014;53.076;18.208;2024-01-27T01:01:56;11.80;;;2.05;;
21705;SDS011;11014;53.076;18.208;2024-01-27T01:04:25;11.23;;;2.30;;
21705;SDS011;11014;53.076;18.208;2024-01-27T01:06:54;19.00;;;2.85;;
21705;SDS011;11014;53.076;18.208;2024-01-27T01:09:24;19.60;;;2.78;;
21705;SDS011;11014;53.076;18.208;2024-01-27T01:11:52;11.48;;;2.55;;
21705;SDS011;11014;53.076;18.208;2024-01-27T01:14:22;13.15;;;2.45;;
21705;SDS011;11014;53.076;18.208;2024-01-27T01:16:50;17.85;;;2.20;;
21705;SDS011;11014;53.076;18.208;2024-01-27T01:19:19;10.73;;;1.83;;
21705;SDS011;11014;53.076;18.208;2024-01-27T01:21:47;16.20;;;2.58;;
21705;SDS011;11014;53.076;18.208;2024-01-27T01:24:16;12.73;;;2.28;;
21705;SDS011;11014;53.076;18.208;2024-01-27T01:26:44;16.05;;;2.78;;
21705;SDS011;11014;53.076;18.208;2024-01-27T01:29:13;8.50;;;1.60;;
21705;SDS011;11014;53.076;18.208;2024-01-27T01:31:42;10.07;;;2.08;;
21705;SDS011;11014;53.076;18.208;2024-01-27T01:34:11;12.15;;;1.95;;
21705;SDS011;11014;53.076;18.208;2024-01-27T01:36:40;10.70;;;1.85;;
21705;SDS011;11014;53.076;18.208;2024-01-27T01:39:09;9.98;;;2.15;;
21705;SDS011;11014;53.076;18.208;2024-01-27T01:41:39;13.05;;;1.70;;
21705;SDS011;11014;53.076;18.208;2024-01-27T01:44:08;8.48;;;1.50;;
21705;SDS011;11014;53.076;18.208;2024-01-27T01:46:36;9.23;;;1.85;;
21705;SDS011;11014;53.076;18.208;2024-01-27T01:49:05;18.42;;;2.45;;
21705;SDS011;11014;53.076;18.208;2024-01-27T01:51:37;6.05;;;1.42;;
21705;SDS011;11014;53.076;18.208;2024-01-27T01:54:06;18.10;;;2.72;;
21705;SDS011;11014;53.076;18.208;2024-01-27T01:56:35;18.60;;;2.88;;
21705;SDS011;11014;53.076;18.208;2024-01-27T01:59:05;10.90;;;2.45;;
21705;SDS011;11014;53.076;18.208;2024-01-27T02:01:34;13.68;;;2.40;;
21705;SDS011;11014;53.076;18.208;2024-01-27T02:04:03;17.00;;;2.03;;
21705;SDS011;11014;53.076;18.208;2024-01-27T02:06:32;16.27;;;2.50;;
21705;SDS011;11014;53.076;18.208;2024-01-27T02:09:01;9.15;;;1.77;;
21705;SDS011;11014;53.076;18.208;2024-01-27T02:11:30;12.65;;;2.10;;
21705;SDS011;11014;53.076;18.208;2024-01-27T02:13:59;8.68;;;2.00;;
21705;SDS011;11014;53.076;18.208;2024-01-27T02:16:27;9.85;;;1.50;;
21705;SDS011;11014;53.076;18.208;2024-01-27T02:18:56;10.82;;;2.42;;
21705;SDS011;11014;53.076;18.208;2024-01-27T02:21:24;18.88;;;2.28;;
21705;SDS011;11014;53.076;18.208;2024-01-27T02:23:53;11.73;;;2.33;;
21705;SDS011;11014;53.076;18.208;2024-01-27T02:26:22;15.13;;;2.67;;
21705;SDS011;11014;53.076;18.208;2024-01-27T02:28:52;13.85;;;2.67;;
21705;SDS011;11014;53.076;18.208;2024-01-27T02:31:20;13.05;;;2.10;;
21705;SDS011;11014;53.076;18.208;2024-01-27T02:33:49;15.57;;;2.45;;
21705;SDS011;11014;53.076;18.208;2024-01-27T02:36:18;14.32;;;2.55;;
21705;SDS011;11014;53.076;18.208;2024-01-27T02:38:47;13.32;;;2.30;;
21705;SDS011;11014;53.076;18.208;2024-01-27T02:41:15;12.18;;;2.25;;
21705;SDS011;11014;53.076;18.208;2024-01-27T02:43:45;16.02;;;2.72;;
21705;SDS011;11014;53.076;18.208;2024-01-27T02:46:13;11.15;;;1.95;;
21705;SDS011;11014;53.076;18.208;2024-01-27T02:48:43;11.95;;;2.20;;
21705;SDS011;11014;53.076;18.208;2024-01-27T02:51:12;9.00;;;1.70;;
21705;SDS011;11014;53.076;18.208;2024-01-27T02:53:41;14.25;;;2.22;;
21705;SDS011;11014;53.076;18.208;2024-01-27T02:56:10;12.10;;;2.55;;
21705;SDS011;11014;53.076;18.208;2024-01-27T02:58:38;9.50;;;1.88;;
21705;SDS011;11014;53.076;18.208;2024-01-27T03:01:08;11.85;;;1.85;;
21705;SDS011;11014;53.076;18.208;2024-01-27T03:03:37;15.98;;;2.20;;
21705;SDS011;11014;53.076;18.208;2024-01-27T03:06:07;12.10;;;2.05;;
21705;SDS011;11014;53.076;18.208;2024-01-27T03:08:36;15.63;;;1.95;;
21705;SDS011;11014;53.076;18.208;2024-01-27T03:11:04;15.40;;;2.15;;
21705;SDS011;11014;53.076;18.208;2024-01-27T03:13:34;12.82;;;2.25;;
21705;SDS011;11014;53.076;18.208;2024-01-27T03:16:08;4.63;;;1.15;;
21705;SDS011;11014;53.076;18.208;2024-01-27T03:18:37;13.25;;;2.55;;
21705;SDS011;11014;53.076;18.208;2024-01-27T03:21:06;10.15;;;1.90;;
21705;SDS011;11014;53.076;18.208;2024-01-27T03:23:36;11.55;;;2.30;;
21705;SDS011;11014;53.076;18.208;2024-01-27T03:26:04;14.40;;;2.15;;
21705;SDS011;11014;53.076;18.208;2024-01-27T03:28:33;13.20;;;2.35;;
21705;SDS011;11014;53.076;18.208;2024-01-27T03:31:01;9.48;;;1.55;;
21705;SDS011;11014;53.076;18.208;2024-01-27T03:33:30;13.18;;;2.03;;
21705;SDS011;11014;53.076;18.208;2024-01-27T03:35:59;15.82;;;2.40;;
21705;SDS011;11014;53.076;18.208;2024-01-27T03:38:27;10.80;;;2.13;;
21705;SDS011;11014;53.076;18.208;2024-01-27T03:40:56;12.23;;;2.03;;
21705;SDS011;11014;53.076;18.208;2024-01-27T03:43:25;16.85;;;2.50;;
21705;SDS011;11014;53.076;18.208;2024-01-27T03:45:53;16.30;;;2.28;;
21705;SDS011;11014;53.076;18.208;2024-01-27T03:48:22;16.45;;;2.45;;
21705;SDS011;11014;53.076;18.208;2024-01-27T03:50:51;10.85;;;1.90;;
21705;SDS011;11014;53.076;18.208;2024-01-27T03:53:20;12.63;;;2.08;;
21705;SDS011;11014;53.076;18.208;2024-01-27T03:55:48;12.50;;;1.73;;
21705;SDS011;11014;53.076;18.208;2024-01-27T03:58:19;18.42;;;2.30;;
21705;SDS011;11014;53.076;18.208;2024-01-27T04:00:48;19.77;;;2.58;;
21705;SDS011;11014;53.076;18.208;2024-01-27T04:03:17;15.40;;;1.83;;
21705;SDS011;11014;53.076;18.208;2024-01-27T04:05:46;20.25;;;2.55;;
21705;SDS011;11014;53.076;18.208;2024-01-27T04:08:15;17.98;;;2.67;;
21705;SDS011;11014;53.076;18.208;2024-01-27T04:10:44;13.73;;;2.08;;
21705;SDS011;11014;53.076;18.208;2024-01-27T04:13:12;8.82;;;2.50;;
21705;SDS011;11014;53.076;18.208;2024-01-27T04:15:41;17.98;;;2.78;;
21705;SDS011;11014;53.076;18.208;2024-01-27T04:18:10;16.77;;;2.65;;
21705;SDS011;11014;53.076;18.208;2024-01-27T04:20:40;1.98;;;1.10;;
21705;SDS011;11014;53.076;18.208;2024-01-27T04:23:09;0.03;;;0.03;;
21705;SDS011;11014;53.076;18.208;2024-01-27T04:25:37;0.10;;;0.10;;
21705;SDS011;11014;53.076;18.208;2024-01-27T04:28:06;0.30;;;0.30;;
21705;SDS011;11014;53.076;18.208;2024-01-27T04:30:37;0.00;;;0.00;;
21705;SDS011;11014;53.076;18.208;2024-01-27T04:33:06;0.35;;;0.35;;
21705;SDS011;11014;53.076;18.208;2024-01-27T04:35:36;0.00;;;0.00;;
21705;SDS011;11014;53.076;18.208;2024-01-27T04:38:04;0.90;;;0.90;;
21705;SDS011;11014;53.076;18.208;2024-01-27T04:40:33;0.10;;;0.10;;
21705;SDS011;11014;53.076;18.208;2024-01-27T04:43:03;0.00;;;0.00;;
21705;SDS011;11014;53.076;18.208;2024-01-27T04:45:33;0.00;;;0.00;;
21705;SDS011;11014;53.076;18.208;2024-01-27T04:48:02;0.20;;;0.20;;
21705;SDS011;11014;53.076;18.208;2024-01-27T04:50:31;0.00;;;0.00;;
21705;SDS011;11014;53.076;18.208;2024-01-27T04:52:59;0.10;;;0.10;;
21705;SDS011;11014;53.076;18.208;2024-01-27T04:55:28;0.10;;;0.10;;
21705;SDS011;11014;53.076;18.208;2024-01-27T04:57:57;0.00;;;0.00;;
21705;SDS011;11014;53.076;18.208;2024-01-27T05:00:26;0.00;;;0.00;;
21705;SDS011;11014;53.076;18.208;2024-01-27T05:02:56;0.00;;;0.00;;
21705;SDS011;11014;53.076;18.208;2024-01-27T05:05:28;0.10;;;0.10;;
21705;SDS011;11014;53.076;18.208;2024-01-27T05:08:00;0.30;;;0.30;;
21705;SDS011;11014;53.076;18.208;2024-01-27T05:10:29;0.10;;;0.10;;
21705;SDS011;11014;53.076;18.208;2024-01-27T05:12:59;0.00;;;0.00;;
21705;SDS011;11014;53.076;18.208;2024-01-27T05:15:27;0.10;;;0.10;;
21705;SDS011;11014;53.076;18.208;2024-01-27T05:17:56;0.28;;;0.28;;
21705;SDS011;11014;53.076;18.208;2024-01-27T05:20:25;0.10;;;0.10;;
21705;SDS011;11014;53.076;18.208;2024-01-27T05:22:53;0.00;;;0.00;;
21705;SDS011;11014;53.076;18.208;2024-01-27T05:25:22;0.00;;;0.00;;
21705;SDS011;11014;53.076;18.208;2024-01-27T05:27:51;0.00;;;0.00;;
21705;SDS011;11014;53.076;18.208;2024-01-27T05:30:19;0.40;;;0.40;;
21705;SDS011;11014;53.076;18.208;2024-01-27T05:32:50;0.10;;;0.10;;
21705;SDS011;11014;53.076;18.208;2024-01-27T05:35:19;0.00;;;0.00;;
21705;SDS011;11014;53.076;18.208;2024-01-27T05:37:47;1.27;;;0.80;;
21705;SDS011;11014;53.076;18.208;2024-01-27T05:40:16;35.28;;;1.98;;
21705;SDS011;11014;53.076;18.208;2024-01-27T05:42:45;14.35;;;0.90;;
21705;SDS011;11014;53.076;18.208;2024-01-27T05:45:13;0.05;;;0.05;;
21705;SDS011;11014;53.076;18.208;2024-01-27T05:47:42;0.40;;;0.40;;
21705;SDS011;11014;53.076;18.208;2024-01-27T05:50:11;0.00;;;0.00;;
21705;SDS011;11014;53.076;18.208;2024-01-27T05:52:40;0.00;;;0.00;;
21705;SDS011;11014;53.076;18.208;2024-01-27T05:55:08;0.00;;;0.00;;
21705;SDS011;11014;53.076;18.208;2024-01-27T05:57:38;0.00;;;0.00;;
21705;SDS011;11014;53.076;18.208;2024-01-27T06:00:07;0.10;;;0.10;;
21705;SDS011;11014;53.076;18.208;2024-01-27T06:02:38;0.00;;;0.00;;
21705;SDS011;11014;53.076;18.208;2024-01-27T06:05:07;0.00;;;0.00;;
21705;SDS011;11014;53.076;18.208;2024-01-27T06:07:38;0.10;;;0.10;;
21705;SDS011;11014;53.076;18.208;2024-01-27T06:10:10;0.00;;;0.00;;
21705;SDS011;11014;53.076;18.208;2024-01-27T06:12:39;0.00;;;0.00;;
21705;SDS011;11014;53.076;18.208;2024-01-27T06:15:08;0.00;;;0.00;;
21705;SDS011;11014;53.076;18.208;2024-01-27T06:17:38;0.43;;;0.43;;
21705;SDS011;11014;53.076;18.208;2024-01-27T06:20:07;0.08;;;0.08;;
21705;SDS011;11014;53.076;18.208;2024-01-27T06:22:37;0.00;;;0.00;;
21705;SDS011;11014;53.076;18.208;2024-01-27T06:25:05;0.10;;;0.10;;
21705;SDS011;11014;53.076;18.208;2024-01-27T06:27:37;0.00;;;0.00;;
21705;SDS011;11014;53.076;18.208;2024-01-27T06:30:06;0.75;;;0.75;;
21705;SDS011;11014;53.076;18.208;2024-01-27T06:32:36;0.00;;;0.00;;
21705;SDS011;11014;53.076;18.208;2024-01-27T06:35:05;0.63;;;0.63;;
21705;SDS011;11014;53.076;18.208;2024-01-27T06:37:34;0.00;;;0.00;;
21705;SDS011;11014;53.076;18.208;2024-01-27T06:40:03;0.00;;;0.00;;
21705;SDS011;11014;53.076;18.208;2024-01-27T06:42:32;0.00;;;0.00;;
21705;SDS011;11014;53.076;18.208;2024-01-27T06:45:00;0.05;;;0.05;;
21705;SDS011;11014;53.076;18.208;2024-01-27T06:47:30;0.35;;;0.35;;
21705;SDS011;11014;53.076;18.208;2024-01-27T06:49:58;7.68;;;0.70;;
21705;SDS011;11014;53.076;18.208;2024-01-27T06:52:27;0.20;;;0.20;;
21705;SDS011;11014;53.076;18.208;2024-01-27T06:54:56;0.45;;;0.45;;
21705;SDS011;11014;53.076;18.208;2024-01-27T06:57:25;0.00;;;0.00;;
21705;SDS011;11014;53.076;18.208;2024-01-27T06:59:54;0.00;;;0.00;;
21705;SDS011;11014;53.076;18.208;2024-01-27T07:02:25;0.20;;;0.20;;
21705;SDS011;11014;53.076;18.208;2024-01-27T07:04:56;0.00;;;0.00;;
21705;SDS011;11014;53.076;18.208;2024-01-27T07:07:26;0.20;;;0.20;;
21705;SDS011;11014;53.076;18.208;2024-01-27T07:09:55;0.52;;;0.52;;
21705;SDS011;11014;53.076;18.208;2024-01-27T07:12:24;0.20;;;0.20;;
21705;SDS011;11014;53.076;18.208;2024-01-27T07:14:54;0.13;;;0.13;;
21705;SDS011;11014;53.076;18.208;2024-01-27T07:17:26;0.00;;;0.00;;
21705;SDS011;11014;53.076;18.208;2024-01-27T07:19:55;0.10;;;0.10;;
21705;SDS011;11014;53.076;18.208;2024-01-27T07:22:24;0.08;;;0.08;;
21705;SDS011;11014;53.076;18.208;2024-01-27T07:24:53;0.00;;;0.00;;
21705;SDS011;11014;53.076;18.208;2024-01-27T07:27:23;0.10;;;0.10;;
21705;SDS011;11014;53.076;18.208;2024-01-27T07:29:52;0.10;;;0.10;;
21705;SDS011;11014;53.076;18.208;2024-01-27T07:32:21;0.10;;;0.10;;
21705;SDS011;11014;53.076;18.208;2024-01-27T07:34:50;0.10;;;0.10;;
21705;SDS011;11014;53.076;18.208;2024-01-27T07:37:19;0.10;;;0.10;;
21705;SDS011;11014;53.076;18.208;2024-01-27T07:39:49;0.30;;;0.30;;
21705;SDS011;11014;53.076;18.208;2024-01-27T07:42:19;0.00;;;0.00;;
21705;SDS011;11014;53.076;18.208;2024-01-27T07:44:50;0.00;;;0.00;;
21705;SDS011;11014;53.076;18.208;2024-01-27T07:47:20;0.10;;;0.10;;
21705;SDS011;11014;53.076;18.208;2024-01-27T07:49:48;0.20;;;0.20;;
21705;SDS011;11014;53.076;18.208;2024-01-27T07:52:18;0.10;;;0.10;;
21705;SDS011;11014;53.076;18.208;2024-01-27T07:54:46;0.10;;;0.10;;
21705;SDS011;11014;53.076;18.208;2024-01-27T07:57:15;0.08;;;0.08;;
21705;SDS011;11014;53.076;18.208;2024-01-27T07:59:44;0.28;;;0.28;;
21705;SDS011;11014;53.076;18.208;2024-01-27T08:02:12;0.00;;;0.00;;
21705;SDS011;11014;53.076;18.208;2024-01-27T08:04:41;0.20;;;0.20;;
21705;SDS011;11014;53.076;18.208;2024-01-27T08:07:10;0.20;;;0.20;;
21705;SDS011;11014;53.076;18.208;2024-01-27T08:09:39;0.28;;;0.28;;
21705;SDS011;11014;53.076;18.208;2024-01-27T08:12:08;0.00;;;0.00;;
21705;SDS011;11014;53.076;18.208;2024-01-27T08:14:37;0.00;;;0.00;;
21705;SDS011;11014;53.076;18.208;2024-01-27T08:17:07;0.10;;;0.10;;
21705;SDS011;11014;53.076;18.208;2024-01-27T08:19:35;0.10;;;0.10;;
21705;SDS011;11014;53.076;18.208;2024-01-27T08:22:09;0.20;;;0.20;;
21705;SDS011;11014;53.076;18.208;2024-01-27T08:27:07;1.52;;;1.17;;
21705;SDS011;11014;53.076;18.208;2024-01-27T08:29:36;0.00;;;0.00;;
21705;SDS011;11014;53.076;18.208;2024-01-27T08:32:05;0.00;;;0.00;;
21705;SDS011;11014;53.076;18.208;2024-01-27T08:34:34;0.00;;;0.00;;
21705;SDS011;11014;53.076;18.208;2024-01-27T08:37:13;0.38;;;0.38;;
21705;SDS011;11014;53.076;18.208;2024-01-27T08:39:44;0.40;;;0.40;;
21705;SDS011;11014;53.076;18.208;2024-01-27T08:42:14;0.00;;;0.00;;
21705;SDS011;11014;53.076;18.208;2024-01-27T08:44:43;0.00;;;0.00;;
21705;SDS011;11014;53.076;18.208;2024-01-27T08:47:12;0.00;;;0.00;;
21705;SDS011;11014;53.076;18.208;2024-01-27T08:49:40;0.00;;;0.00;;
21705;SDS011;11014;53.076;18.208;2024-01-27T08:52:10;0.10;;;0.10;;
21705;SDS011;11014;53.076;18.208;2024-01-27T08:54:39;0.00;;;0.00;;
21705;SDS011;11014;53.076;18.208;2024-01-27T08:57:10;0.00;;;0.00;;
21705;SDS011;11014;53.076;18.208;2024-01-27T08:59:38;0.10;;;0.10;;
21705;SDS011;11014;53.076;18.208;2024-01-27T09:02:08;0.00;;;0.00;;
21705;SDS011;11014;53.076;18.208;2024-01-27T09:04:37;0.00;;;0.00;;
21705;SDS011;11014;53.076;18.208;2024-01-27T09:07:06;4.05;;;0.90;;
21705;SDS011;11014;53.076;18.208;2024-01-27T09:09:35;0.00;;;0.00;;
21705;SDS011;11014;53.076;18.208;2024-01-27T09:12:06;0.30;;;0.30;;
21705;SDS011;11014;53.076;18.208;2024-01-27T09:14:35;0.30;;;0.30;;
21705;SDS011;11014;53.076;18.208;2024-01-27T09:17:05;0.00;;;0.00;;
21705;SDS011;11014;53.076;18.208;2024-01-27T09:19:33;2.25;;;0.90;;
21705;SDS011;11014;53.076;18.208;2024-01-27T09:22:03;0.20;;;0.20;;
21705;SDS011;11014;53.076;18.208;2024-01-27T09:24:35;0.10;;;0.10;;
21705;SDS011;11014;53.076;18.208;2024-01-27T09:46:22;0.10;;;0.10;;
21705;SDS011;11014;53.076;18.208;2024-01-27T10:03:08;0.00;;;0.00;;
21705;SDS011;11014;53.076;18.208;2024-01-27T10:11:10;0.10;;;0.10;;
21705;SDS011;11014;53.076;18.208;2024-01-27T11:12:05;0.30;;;0.30;;
21705;SDS011;11014;53.076;18.208;2024-01-27T11:14:36;0.08;;;0.08;;
21705;SDS011;11014;53.076;18.208;2024-01-27T11:17:10;0.00;;;0.00;;
21705;SDS011;11014;53.076;18.208;2024-01-27T11:19:47;0.50;;;0.50;;
21705;SDS011;11014;53.076;18.208;2024-01-27T11:22:34;0.05;;;0.05;;
21705;SDS011;11014;53.076;18.208;2024-01-27T11:27:42;0.80;;;0.80;;
21705;SDS011;11014;53.076;18.208;2024-01-27T11:32:57;0.20;;;0.20;;
21705;SDS011;11014;53.076;18.208;2024-01-27T11:35:30;0.10;;;0.10;;
21705;SDS011;11014;53.076;18.208;2024-01-27T11:38:02;12.13;;;2.92;;
21705;SDS011;11014;53.076;18.208;2024-01-27T11:40:31;7.50;;;2.42;;
21705;SDS011;11014;53.076;18.208;2024-01-27T11:43:01;12.52;;;2.45;;
21705;SDS011;11014;53.076;18.208;2024-01-27T11:45:34;9.68;;;2.00;;
21705;SDS011;11014;53.076;18.208;2024-01-27T11:48:14;11.55;;;3.40;;
21705;SDS011;11014;53.076;18.208;2024-01-27T11:50:43;15.27;;;3.20;;
21705;SDS011;11014;53.076;18.208;2024-01-27T11:53:13;17.23;;;3.45;;
21705;SDS011;11014;53.076;18.208;2024-01-27T11:55:41;11.45;;;2.03;;
21705;SDS011;11014;53.076;18.208;2024-01-27T11:58:13;15.40;;;3.03;;
21705;SDS011;11014;53.076;18.208;2024-01-27T12:00:41;13.32;;;3.30;;
21705;SDS011;11014;53.076;18.208;2024-01-27T12:03:10;12.30;;;2.85;;
21705;SDS011;11014;53.076;18.208;2024-01-27T12:05:39;16.50;;;5.18;;
21705;SDS011;11014;53.076;18.208;2024-01-27T12:08:09;16.48;;;3.95;;
21705;SDS011;11014;53.076;18.208;2024-01-27T12:10:40;9.50;;;2.63;;
21705;SDS011;11014;53.076;18.208;2024-01-27T12:13:10;13.45;;;3.83;;
21705;SDS011;11014;53.076;18.208;2024-01-27T12:15:39;14.45;;;3.30;;
21705;SDS011;11014;53.076;18.208;2024-01-27T12:21:47;12.43;;;2.60;;
21705;SDS011;11014;53.076;18.208;2024-01-27T12:24:20;12.13;;;3.20;;
21705;SDS011;11014;53.076;18.208;2024-01-27T12:26:52;13.95;;;3.20;;
21705;SDS011;11014;53.076;18.208;2024-01-27T12:29:36;15.73;;;5.40;;
21705;SDS011;11014;53.076;18.208;2024-01-27T12:32:06;12.82;;;2.63;;
21705;SDS011;11014;53.076;18.208;2024-01-27T12:34:41;20.60;;;2.72;;
21705;SDS011;11014;53.076;18.208;2024-01-27T12:37:12;14.52;;;4.35;;
21705;SDS011;11014;53.076;18.208;2024-01-27T12:39:43;19.85;;;5.03;;
21705;SDS011;11014;53.076;18.208;2024-01-27T12:42:12;13.57;;;2.78;;
21705;SDS011;11014;53.076;18.208;2024-01-27T12:44:41;14.00;;;3.03;;
21705;SDS011;11014;53.076;18.208;2024-01-27T13:41:17;15.90;;;4.05;;
21705;SDS011;11014;53.076;18.208;2024-01-27T13:44:00;10.98;;;3.13;;
21705;SDS011;11014;53.076;18.208;2024-01-27T13:46:40;17.17;;;3.97;;
21705;SDS011;11014;53.076;18.208;2024-01-27T13:52:17;8.18;;;2.60;;
21705;SDS011;11014;53.076;18.208;2024-01-27T13:58:51;10.43;;;3.65;;
21705;SDS011;11014;53.076;18.208;2024-01-27T14:02:39;19.70;;;6.13;;
21705;SDS011;11014;53.076;18.208;2024-01-27T14:10:54;13.90;;;3.42;;
21705;SDS011;11014;53.076;18.208;2024-01-27T14:14:13;13.88;;;2.83;;
21705;SDS011;11014;53.076;18.208;2024-01-27T14:17:48;17.25;;;4.43;;
21705;SDS011;11014;53.076;18.208;2024-01-27T14:21:25;13.40;;;3.50;;
21705;SDS011;11014;53.076;18.208;2024-01-27T14:24:37;11.02;;;3.10;;
21705;SDS011;11014;53.076;18.208;2024-01-27T14:27:28;19.25;;;3.72;;
21705;SDS011;11014;53.076;18.208;2024-01-27T14:33:07;13.80;;;3.78;;
21705;SDS011;11014;53.076;18.208;2024-01-27T14:36:51;16.02;;;3.47;;
21705;SDS011;11014;53.076;18.208;2024-01-27T14:39:25;15.75;;;4.05;;
21705;SDS011;11014;53.076;18.208;2024-01-27T14:48:09;10.93;;;2.88;;
21705;SDS011;11014;53.076;18.208;2024-01-27T14:54:37;14.63;;;3.90;;
21705;SDS011;11014;53.076;18.208;2024-01-27T14:57:06;12.07;;;4.10;;
21705;SDS011;11014;53.076;18.208;2024-01-27T15:00:03;12.43;;;3.15;;
21705;SDS011;11014;53.076;18.208;2024-01-27T15:05:29;11.88;;;2.92;;
21705;SDS011;11014;53.076;18.208;2024-01-27T15:08:03;12.05;;;3.10;;
21705;SDS011;11014;53.076;18.208;2024-01-27T15:10:35;15.15;;;3.30;;
21705;SDS011;11014;53.076;18.208;2024-01-27T15:13:25;21.55;;;5.07;;
21705;SDS011;11014;53.076;18.208;2024-01-27T15:15:55;12.27;;;3.22;;
21705;SDS011;11014;53.076;18.208;2024-01-27T15:18:25;16.58;;;3.60;;
21705;SDS011;11014;53.076;18.208;2024-01-27T15:20:54;12.32;;;3.08;;
21705;SDS011;11014;53.076;18.208;2024-01-27T15:23:23;13.98;;;3.90;;
21705;SDS011;11014;53.076;18.208;2024-01-27T15:25:53;10.80;;;2.63;;
21705;SDS011;11014;53.076;18.208;2024-01-27T15:28:23;14.32;;;3.10;;
21705;SDS011;11014;53.076;18.208;2024-01-27T15:30:52;16.17;;;3.53;;
21705;SDS011;11014;53.076;18.208;2024-01-27T15:33:21;12.27;;;3.08;;
21705;SDS011;11014;53.076;18.208;2024-01-27T15:35:49;12.98;;;2.47;;
21705;SDS011;11014;53.076;18.208;2024-01-27T15:38:18;13.50;;;3.38;;
21705;SDS011;11014;53.076;18.208;2024-01-27T15:40:47;10.98;;;3.00;;
21705;SDS011;11014;53.076;18.208;2024-01-27T15:43:17;15.35;;;3.53;;
21705;SDS011;11014;53.076;18.208;2024-01-27T15:45:45;16.02;;;3.95;;
21705;SDS011;11014;53.076;18.208;2024-01-27T15:48:15;12.15;;;4.05;;
21705;SDS011;11014;53.076;18.208;2024-01-27T15:53:42;15.85;;;3.17;;
21705;SDS011;11014;53.076;18.208;2024-01-27T15:56:11;20.67;;;4.13;;
21705;SDS011;11014;53.076;18.208;2024-01-27T15:58:41;14.80;;;4.05;;
21705;SDS011;11014;53.076;18.208;2024-01-27T16:01:10;11.27;;;3.08;;
21705;SDS011;11014;53.076;18.208;2024-01-27T16:03:40;22.33;;;5.57;;
21705;SDS011;11014;53.076;18.208;2024-01-27T16:06:11;19.38;;;5.00;;
21705;SDS011;11014;53.076;18.208;2024-01-27T16:08:40;15.70;;;4.30;;
21705;SDS011;11014;53.076;18.208;2024-01-27T16:11:09;18.55;;;4.72;;
21705;SDS011;11014;53.076;18.208;2024-01-27T16:13:37;22.98;;;6.90;;
21705;SDS011;11014;53.076;18.208;2024-01-27T16:16:07;14.50;;;3.63;;
21705;SDS011;11014;53.076;18.208;2024-01-27T16:18:36;21.35;;;7.00;;
21705;SDS011;11014;53.076;18.208;2024-01-27T16:21:07;15.73;;;4.00;;
21705;SDS011;11014;53.076;18.208;2024-01-27T16:23:36;26.02;;;7.72;;
21705;SDS011;11014;53.076;18.208;2024-01-27T16:26:06;19.42;;;5.20;;
21705;SDS011;11014;53.076;18.208;2024-01-27T16:28:36;14.93;;;3.78;;
21705;SDS011;11014;53.076;18.208;2024-01-27T16:31:06;19.55;;;5.03;;
21705;SDS011;11014;53.076;18.208;2024-01-27T16:33:36;17.15;;;3.63;;
21705;SDS011;11014;53.076;18.208;2024-01-27T16:36:31;23.58;;;5.47;;
21705;SDS011;11014;53.076;18.208;2024-01-27T16:39:00;19.90;;;3.45;;
21705;SDS011;11014;53.076;18.208;2024-01-27T16:44:23;14.15;;;3.08;;
21705;SDS011;11014;53.076;18.208;2024-01-27T16:46:51;14.70;;;2.90;;
21705;SDS011;11014;53.076;18.208;2024-01-27T16:49:20;16.27;;;3.05;;
21705;SDS011;11014;53.076;18.208;2024-01-27T16:51:49;13.50;;;2.63;;
21705;SDS011;11014;53.076;18.208;2024-01-27T16:54:17;21.95;;;4.63;;
21705;SDS011;11014;53.076;18.208;2024-01-27T16:56:47;17.25;;;4.18;;
21705;SDS011;11014;53.076;18.208;2024-01-27T16:59:17;15.93;;;3.55;;
21705;SDS011;11014;53.076;18.208;2024-01-27T17:01:46;14.32;;;3.08;;
21705;SDS011;11014;53.076;18.208;2024-01-27T17:04:18;14.40;;;4.20;;
21705;SDS011;11014;53.076;18.208;2024-01-27T17:06:50;14.13;;;3.33;;
21705;SDS011;11014;53.076;18.208;2024-01-27T17:31:45;16.70;;;4.03;;
21705;SDS011;11014;53.076;18.208;2024-01-27T17:39:51;16.13;;;4.60;;
21705;SDS011;11014;53.076;18.208;2024-01-27T17:42:20;17.83;;;4.28;;
21705;SDS011;11014;53.076;18.208;2024-01-27T17:44:50;12.48;;;3.13;;
21705;SDS011;11014;53.076;18.208;2024-01-27T17:47:48;15.00;;;4.68;;
21705;SDS011;11014;53.076;18.208;2024-01-27T17:50:58;12.88;;;3.78;;
21705;SDS011;11014;53.076;18.208;2024-01-27T17:54:20;14.93;;;3.80;;
21705;SDS011;11014;53.076;18.208;2024-01-27T17:57:53;16.98;;;3.83;;
21705;SDS011;11014;53.076;18.208;2024-01-27T18:00:41;13.90;;;3.53;;
21705;SDS011;11014;53.076;18.208;2024-01-27T18:03:46;23.73;;;5.45;;
21705;SDS011;11014;53.076;18.208;2024-01-27T18:06:17;14.88;;;4.30;;
21705;SDS011;11014;53.076;18.208;2024-01-27T18:09:18;16.20;;;4.05;;
21705;SDS011;11014;53.076;18.208;2024-01-27T18:11:53;17.02;;;3.80;;
21705;SDS011;11014;53.076;18.208;2024-01-27T18:19:30;17.77;;;4.10;;
21705;SDS011;11014;53.076;18.208;2024-01-27T19:02:10;15.32;;;4.22;;
21705;SDS011;11014;53.076;18.208;2024-01-27T19:04:39;10.07;;;2.80;;
21705;SDS011;11014;53.076;18.208;2024-01-27T19:07:29;11.43;;;2.85;;
21705;SDS011;11014;53.076;18.208;2024-01-27T19:09:58;11.70;;;3.10;;
21705;SDS011;11014;53.076;18.208;2024-01-27T19:12:26;18.08;;;4.18;;
21705;SDS011;11014;53.076;18.208;2024-01-27T19:14:55;11.20;;;3.13;;
21705;SDS011;11014;53.076;18.208;2024-01-27T19:17:25;12.48;;;3.47;;
21705;SDS011;11014;53.076;18.208;2024-01-27T19:20:07;17.52;;;3.80;;
21705;SDS011;11014;53.076;18.208;2024-01-27T19:22:37;11.57;;;3.15;;
21705;SDS011;11014;53.076;18.208;2024-01-27T19:25:07;17.10;;;3.60;;
21705;SDS011;11014;53.076;18.208;2024-01-27T19:27:37;14.02;;;3.45;;